Time;durP1;ratioP1;P1;durP2;ratioP2;P2;SDS_P1;SDS_P2;PMS_P1;PMS_P2;Temp;Humidity;BMP_temperature;BMP_pressure;BME280_temperature;BME280_humidity;BME280_pressure;Samples;Min_cycle;Max_cycle;Signal;HPM_P1;HPM_P2
2021/06/15 04:53:29;;;;;;;8.93;6.65;;;;;;;;;;5413228;23;20434;-91
2021/06/15 04:55:55;;;;;;;10.05;6.90;;;;;;;;;;4972446;28;20407;-88
2021/06/15 04:58:22;;;;;;;11.82;7.25;;;;;;;;;;4958425;28;20379;-90
2021/06/15 05:00:48;;;;;;;11.10;7.20;;;;;;;;;;4986492;28;20541;-91
2021/06/15 05:03:15;;;;;;;10.13;7.00;;;;;;;;;;4986929;28;20387;-91
2021/06/15 05:05:41;;;;;;;9.73;7.57;;;;;;;;;;4986468;28;20474;-90
2021/06/15 05:08:13;;;;;;;10.70;7.00;;;;;;;;;;4987562;28;20438;-92
2021/06/15 05:10:40;;;;;;;12.73;7.60;;;;;;;;;;4987577;28;20749;-89
2021/06/15 05:13:09;;;;;;;10.00;6.82;;;;;;;;;;4992910;28;20395;-91
2021/06/15 05:15:36;;;;;;;10.30;6.90;;;;;;;;;;4978772;28;21029;-89
2021/06/15 05:18:02;;;;;;;12.57;7.38;;;;;;;;;;4973650;28;20471;-87
2021/06/15 05:20:28;;;;;;;13.45;7.20;;;;;;;;;;4973280;28;20373;-88
2021/06/15 05:22:58;;;;;;;9.27;6.90;;;;;;;;;;4975496;28;20936;-89
2021/06/15 05:25:25;;;;;;;10.80;5.80;;;;;;;;;;4976274;28;20377;-91
2021/06/15 05:27:52;;;;;;;11.02;6.57;;;;;;;;;;4976616;28;20384;-92
2021/06/15 05:30:21;;;;;;;10.05;6.90;;;;;;;;;;4976843;28;20384;-91
2021/06/15 05:32:47;;;;;;;14.63;7.15;;;;;;;;;;4974193;28;20376;-88
2021/06/15 05:35:14;;;;;;;17.55;7.63;;;;;;;;;;4976822;28;20763;-88
2021/06/15 05:37:41;;;;;;;10.05;6.25;;;;;;;;;;4973091;28;20377;-87
2021/06/15 05:40:07;;;;;;;10.98;6.28;;;;;;;;;;4972993;28;20476;-91
2021/06/15 05:42:33;;;;;;;10.70;6.63;;;;;;;;;;4973381;28;20389;-88
2021/06/15 05:44:59;;;;;;;12.02;6.28;;;;;;;;;;4973768;28;20428;-89
2021/06/15 05:47:29;;;;;;;9.65;7.32;;;;;;;;;;4973941;28;20388;-87
2021/06/15 05:49:55;;;;;;;8.93;6.55;;;;;;;;;;4974031;28;20385;-86
2021/06/15 05:52:21;;;;;;;9.80;6.80;;;;;;;;;;4973183;28;20439;-88
2021/06/15 05:54:47;;;;;;;11.82;6.60;;;;;;;;;;4974404;28;20413;-90
2021/06/15 05:57:13;;;;;;;10.48;7.07;;;;;;;;;;4977538;28;20415;-87
2021/06/15 05:59:39;;;;;;;12.87;6.97;;;;;;;;;;4973544;28;20421;-88
2021/06/15 06:02:06;;;;;;;40.47;9.93;;;;;;;;;;4973607;28;20377;-90
2021/06/15 06:04:38;;;;;;;11.55;6.82;;;;;;;;;;4972817;28;20372;-90
2021/06/15 06:09:50;;;;;;;11.95;6.45;;;;;;;;;;4991178;28;20458;-87
2021/06/15 06:12:16;;;;;;;12.05;6.65;;;;;;;;;;4989708;28;20933;-88
2021/06/15 06:14:42;;;;;;;10.20;6.30;;;;;;;;;;4990462;28;20408;-88
2021/06/15 06:17:08;;;;;;;11.27;6.80;;;;;;;;;;4972684;28;20383;-88
2021/06/15 06:19:35;;;;;;;10.13;7.03;;;;;;;;;;4990398;28;20369;-88
2021/06/15 06:22:01;;;;;;;8.68;6.22;;;;;;;;;;4972122;28;20448;-88
2021/06/15 06:24:27;;;;;;;10.10;6.78;;;;;;;;;;4972334;28;20396;-85
2021/06/15 06:26:53;;;;;;;34.47;7.78;;;;;;;;;;4972349;28;20470;-89
2021/06/15 06:29:20;;;;;;;12.27;6.22;;;;;;;;;;4992988;28;20376;-86
2021/06/15 06:31:46;;;;;;;24.20;7.50;;;;;;;;;;4976849;28;20389;-87
2021/06/15 06:34:12;;;;;;;10.95;5.78;;;;;;;;;;4976664;28;20401;-89
2021/06/15 06:36:39;;;;;;;9.32;6.10;;;;;;;;;;4991119;28;20372;-88
2021/06/15 06:39:06;;;;;;;9.70;5.60;;;;;;;;;;4972596;28;20859;-88
2021/06/15 06:41:32;;;;;;;10.93;5.30;;;;;;;;;;4972242;28;20392;-88
2021/06/15 06:43:58;;;;;;;8.20;5.63;;;;;;;;;;4973123;28;21040;-88
2021/06/15 06:46:24;;;;;;;8.52;5.15;;;;;;;;;;4975194;28;20380;-87
2021/06/15 06:48:50;;;;;;;9.00;5.10;;;;;;;;;;4976029;28;20411;-88
2021/06/15 06:51:17;;;;;;;15.00;5.40;;;;;;;;;;4993107;28;20373;-87
2021/06/15 06:53:43;;;;;;;16.67;5.03;;;;;;;;;;4975344;28;20424;-89
2021/06/15 06:56:09;;;;;;;9.00;4.78;;;;;;;;;;4975826;28;20412;-89
2021/06/15 06:58:35;;;;;;;6.40;4.70;;;;;;;;;;4976219;28;20468;-89
2021/06/15 07:01:01;;;;;;;7.20;4.50;;;;;;;;;;4976392;28;20381;-88
2021/06/15 07:03:27;;;;;;;6.85;4.30;;;;;;;;;;4975675;28;20472;-89
2021/06/15 07:05:53;;;;;;;7.20;4.90;;;;;;;;;;4976772;28;20384;-90
2021/06/15 07:08:19;;;;;;;6.40;4.32;;;;;;;;;;4975749;28;20436;-88
2021/06/15 07:10:48;;;;;;;8.63;5.15;;;;;;;;;;4975844;28;20421;-89
2021/06/15 07:13:14;;;;;;;7.68;4.57;;;;;;;;;;4992488;28;20851;-87
2021/06/15 07:15:40;;;;;;;6.30;4.70;;;;;;;;;;4975860;28;20941;-89
2021/06/15 07:18:06;;;;;;;8.65;5.50;;;;;;;;;;4975409;28;20770;-86
2021/06/15 07:20:32;;;;;;;8.00;5.32;;;;;;;;;;4975801;28;20516;-89
2021/06/15 07:22:58;;;;;;;8.33;5.20;;;;;;;;;;4975461;28;20875;-87
2021/06/15 07:25:25;;;;;;;7.90;4.45;;;;;;;;;;4993400;28;20487;-89
2021/06/15 07:27:51;;;;;;;5.95;4.35;;;;;;;;;;4975444;28;20388;-90
2021/06/15 07:30:17;;;;;;;20.08;5.95;;;;;;;;;;4975402;28;20460;-88
2021/06/15 07:32:43;;;;;;;8.32;5.53;;;;;;;;;;4993207;28;20385;-86
2021/06/15 07:35:09;;;;;;;8.27;5.40;;;;;;;;;;4991923;28;20868;-88
2021/06/15 07:37:35;;;;;;;53.10;10.43;;;;;;;;;;4992501;28;20384;-87
2021/06/15 07:40:01;;;;;;;14.85;6.07;;;;;;;;;;4992003;28;20488;-89
2021/06/15 07:42:29;;;;;;;9.67;5.30;;;;;;;;;;4976181;28;20415;-88
2021/06/15 07:44:55;;;;;;;9.77;5.50;;;;;;;;;;4974884;28;20489;-85
2021/06/15 07:47:21;;;;;;;7.10;5.07;;;;;;;;;;4991584;28;20382;-88
2021/06/15 07:49:47;;;;;;;9.05;5.55;;;;;;;;;;4975212;28;20381;-87
2021/06/15 07:52:13;;;;;;;8.52;5.40;;;;;;;;;;4992207;28;20379;-87
2021/06/15 07:54:41;;;;;;;9.25;5.82;;;;;;;;;;4975097;28;20424;-88
2021/06/15 07:57:08;;;;;;;10.40;6.25;;;;;;;;;;4961120;28;20399;-86
2021/06/15 07:59:34;;;;;;;10.43;6.40;;;;;;;;;;4966644;28;20437;-87
2021/06/15 08:02:00;;;;;;;9.10;6.43;;;;;;;;;;4984666;28;20416;-90
2021/06/15 08:04:27;;;;;;;9.73;6.50;;;;;;;;;;4955991;28;20979;-87
2021/06/15 08:06:53;;;;;;;9.30;6.63;;;;;;;;;;4958912;28;20880;-88
2021/06/15 08:09:19;;;;;;;9.60;6.68;;;;;;;;;;4988401;28;20389;-90
2021/06/15 08:11:45;;;;;;;8.77;6.20;;;;;;;;;;4988120;28;20946;-88
2021/06/15 08:14:12;;;;;;;10.30;6.30;;;;;;;;;;4975518;28;20422;-85
2021/06/15 08:16:38;;;;;;;9.25;6.63;;;;;;;;;;4965443;28;20396;-89
2021/06/15 08:19:04;;;;;;;7.80;6.07;;;;;;;;;;4962556;28;20490;-87
2021/06/15 08:21:31;;;;;;;9.07;6.30;;;;;;;;;;4980439;28;20489;-88
2021/06/15 08:23:57;;;;;;;8.90;6.10;;;;;;;;;;4985639;28;20395;-90
2021/06/15 08:26:23;;;;;;;8.75;5.68;;;;;;;;;;4974289;28;20375;-88
2021/06/15 08:28:49;;;;;;;7.30;5.50;;;;;;;;;;4978864;28;20894;-88
2021/06/15 08:31:15;;;;;;;8.27;5.50;;;;;;;;;;4961358;28;20385;-89
2021/06/15 08:33:41;;;;;;;8.38;6.10;;;;;;;;;;4985005;28;20722;-88
2021/06/15 08:36:07;;;;;;;7.28;6.22;;;;;;;;;;4987138;28;20374;-88
2021/06/15 08:38:33;;;;;;;9.87;6.90;;;;;;;;;;4972561;28;20374;-87
2021/06/15 08:40:59;;;;;;;9.32;6.63;;;;;;;;;;4988495;28;20474;-85
2021/06/15 08:43:25;;;;;;;7.40;6.13;;;;;;;;;;4987555;28;20502;-90
2021/06/15 08:45:51;;;;;;;9.10;6.43;;;;;;;;;;4987455;28;20454;-88
2021/06/15 08:48:17;;;;;;;11.52;6.95;;;;;;;;;;4987596;28;20375;-87
2021/06/15 08:50:46;;;;;;;8.70;6.60;;;;;;;;;;4983528;28;20383;-87
2021/06/15 08:53:12;;;;;;;9.73;6.68;;;;;;;;;;4954103;28;20987;-86
2021/06/15 08:55:38;;;;;;;9.00;5.82;;;;;;;;;;4954602;28;20402;-87
2021/06/15 08:58:13;;;;;;;17.50;7.03;;;;;;;;;;4954472;28;20441;-88
2021/06/15 09:00:39;;;;;;;10.07;6.90;;;;;;;;;;4972220;28;20386;-85
2021/06/15 09:03:05;;;;;;;8.65;6.15;;;;;;;;;;4971917;28;20381;-86
2021/06/15 09:05:31;;;;;;;8.57;5.93;;;;;;;;;;4954987;28;20435;-89
2021/06/15 09:07:57;;;;;;;8.73;6.50;;;;;;;;;;4953685;28;20477;-88
2021/06/15 09:10:27;;;;;;;64.75;11.73;;;;;;;;;;4954703;28;20481;-86
2021/06/15 09:12:53;;;;;;;9.80;6.13;;;;;;;;;;4971748;28;20382;-86
2021/06/15 09:15:21;;;;;;;8.77;6.07;;;;;;;;;;4971108;28;20510;-91
2021/06/15 09:17:47;;;;;;;10.43;6.40;;;;;;;;;;4954092;28;20737;-85
2021/06/15 09:20:21;;;;;;;7.18;6.47;;;;;;;;;;4953960;28;20390;-88
2021/06/15 09:22:56;;;;;;;11.52;7.43;;;;;;;;;;4953664;28;20383;-87
2021/06/15 09:25:24;;;;;;;7.55;6.72;;;;;;;;;;4954063;28;20417;-85
2021/06/15 09:27:51;;;;;;;9.25;6.45;;;;;;;;;;4971291;28;20461;-89
2021/06/15 09:30:17;;;;;;;7.72;6.25;;;;;;;;;;4953635;28;20389;-88
2021/06/15 09:32:46;;;;;;;9.27;7.03;;;;;;;;;;4954527;28;20382;-86
2021/06/15 09:35:31;;;;;;;9.50;7.43;;;;;;;;;;4954273;28;20410;-88
2021/06/15 09:38:00;;;;;;;9.55;6.93;;;;;;;;;;4953594;28;20446;-87
2021/06/15 09:40:28;;;;;;;8.27;6.50;;;;;;;;;;4953783;28;20946;-88
2021/06/15 09:42:59;;;;;;;7.63;6.82;;;;;;;;;;4971255;28;20407;-85
2021/06/15 09:45:32;;;;;;;9.93;6.63;;;;;;;;;;4954047;28;20446;-87
2021/06/15 09:48:17;;;;;;;8.15;6.45;;;;;;;;;;4953594;28;20410;-86
2021/06/15 09:50:43;;;;;;;8.57;6.40;;;;;;;;;;4953843;28;20381;-87
2021/06/15 09:53:29;;;;;;;8.20;6.07;;;;;;;;;;4967869;28;20416;-89
2021/06/15 09:55:57;;;;;;;8.43;6.00;;;;;;;;;;4972318;28;20441;-86
2021/06/15 09:58:42;;;;;;;14.65;6.30;;;;;;;;;;4953680;28;20529;-87
2021/06/15 10:01:08;;;;;;;9.70;6.53;;;;;;;;;;4953573;28;20442;-87
2021/06/15 10:03:34;;;;;;;7.73;5.93;;;;;;;;;;4954299;28;20390;-90
2021/06/15 10:06:00;;;;;;;7.97;6.30;;;;;;;;;;4954265;28;20383;-86
2021/06/15 10:08:45;;;;;;;8.25;5.75;;;;;;;;;;4954195;28;20402;-88
2021/06/15 10:11:11;;;;;;;7.50;6.30;;;;;;;;;;4969742;28;20880;-85
2021/06/15 10:13:38;;;;;;;9.15;6.07;;;;;;;;;;4953885;28;20730;-88
2021/06/15 10:16:05;;;;;;;8.55;5.70;;;;;;;;;;4953809;28;20383;-87
2021/06/15 10:18:32;;;;;;;10.05;5.80;;;;;;;;;;4957121;28;20414;-85
2021/06/15 10:20:58;;;;;;;6.78;5.32;;;;;;;;;;4937861;29;20973;-88
2021/06/15 10:23:25;;;;;;;8.15;5.75;;;;;;;;;;4969864;28;20402;-88
2021/06/15 10:25:51;;;;;;;8.75;6.55;;;;;;;;;;4979433;28;20408;-88
2021/06/15 10:28:18;;;;;;;7.53;6.32;;;;;;;;;;4957061;28;20494;-87
2021/06/15 10:30:45;;;;;;;8.80;6.03;;;;;;;;;;4957334;28;20421;-88
2021/06/15 10:33:13;;;;;;;7.05;5.63;;;;;;;;;;4957582;28;20422;-87
2021/06/15 10:35:44;;;;;;;9.55;6.13;;;;;;;;;;4956649;28;20683;-89
2021/06/15 10:38:16;;;;;;;8.52;5.15;;;;;;;;;;4955709;28;20789;-90
2021/06/15 10:40:45;;;;;;;10.80;6.00;;;;;;;;;;4957476;28;20394;-89
2021/06/15 10:43:20;;;;;;;9.38;5.43;;;;;;;;;;4956365;28;20391;-88
2021/06/15 10:45:48;;;;;;;6.70;5.32;;;;;;;;;;4948299;28;20384;-87
2021/06/15 10:48:15;;;;;;;9.20;6.38;;;;;;;;;;4977237;28;20380;-92
2021/06/15 10:50:46;;;;;;;23.70;6.80;;;;;;;;;;4976441;28;20399;-86
2021/06/15 10:53:13;;;;;;;9.07;5.20;;;;;;;;;;4961226;28;20760;-89
2021/06/15 10:55:40;;;;;;;8.60;4.85;;;;;;;;;;4956359;28;20436;-88
2021/06/15 10:58:07;;;;;;;6.97;4.50;;;;;;;;;;4958201;28;20372;-87
2021/06/15 11:00:42;;;;;;;9.20;4.80;;;;;;;;;;4959180;28;20434;-87
2021/06/15 11:03:18;;;;;;;10.02;4.90;;;;;;;;;;4956935;28;20391;-86
2021/06/15 11:05:57;;;;;;;9.50;4.78;;;;;;;;;;4956366;28;20386;-87
2021/06/15 11:08:28;;;;;;;7.32;4.70;;;;;;;;;;4973382;28;20383;-86
2021/06/15 11:11:00;;;;;;;7.73;5.17;;;;;;;;;;4956429;28;20383;-86
2021/06/15 11:13:42;;;;;;;8.80;5.30;;;;;;;;;;4973601;28;20854;-88
2021/06/15 11:16:19;;;;;;;6.47;4.63;;;;;;;;;;4966442;28;20411;-90
2021/06/15 11:18:45;;;;;;;7.43;4.45;;;;;;;;;;4974373;28;20390;-88
2021/06/15 11:21:18;;;;;;;10.68;5.22;;;;;;;;;;4956284;28;20815;-88
2021/06/15 11:23:44;;;;;;;10.60;5.05;;;;;;;;;;4956761;28;20744;-87
2021/06/15 11:26:14;;;;;;;8.45;4.85;;;;;;;;;;4973556;28;20468;-87
2021/06/15 11:28:47;;;;;;;9.32;4.72;;;;;;;;;;4955661;28;20452;-88
2021/06/15 11:31:20;;;;;;;8.88;5.10;;;;;;;;;;4955381;28;20473;-89
2021/06/15 11:33:59;;;;;;;7.53;4.80;;;;;;;;;;4955708;28;20395;-88
2021/06/15 11:36:41;;;;;;;5.88;3.78;;;;;;;;;;4972749;28;20402;-89
2021/06/15 11:39:27;;;;;;;6.30;4.20;;;;;;;;;;4955988;28;20393;-88
2021/06/15 11:42:09;;;;;;;10.05;4.50;;;;;;;;;;4955585;28;20472;-86
2021/06/15 11:44:54;;;;;;;5.53;4.27;;;;;;;;;;4956304;28;20383;-88
2021/06/15 11:47:25;;;;;;;7.07;4.20;;;;;;;;;;4956487;28;20387;-89
2021/06/15 11:50:04;;;;;;;8.98;4.40;;;;;;;;;;4957213;28;20880;-88
2021/06/15 11:52:33;;;;;;;7.63;4.43;;;;;;;;;;4959336;28;20502;-86
2021/06/15 11:54:59;;;;;;;9.32;5.30;;;;;;;;;;4957135;28;20417;-85
2021/06/15 11:57:26;;;;;;;6.63;4.45;;;;;;;;;;4974462;28;20445;-90
2021/06/15 11:59:52;;;;;;;6.70;4.22;;;;;;;;;;4956948;28;20383;-90
2021/06/15 12:02:23;;;;;;;7.63;4.47;;;;;;;;;;4957775;28;20951;-90
2021/06/15 12:05:04;;;;;;;7.32;4.22;;;;;;;;;;4957320;28;20502;-88
2021/06/15 12:07:31;;;;;;;9.05;4.90;;;;;;;;;;4956331;28;20391;-87
2021/06/15 12:10:15;;;;;;;7.45;4.50;;;;;;;;;;4957311;28;20374;-88
2021/06/15 12:12:57;;;;;;;8.13;4.20;;;;;;;;;;4956411;28;20390;-90
2021/06/15 12:15:41;;;;;;;7.38;3.92;;;;;;;;;;4956015;28;20417;-89
2021/06/15 12:18:09;;;;;;;8.33;4.93;;;;;;;;;;4956313;28;20391;-88
2021/06/15 12:20:37;;;;;;;9.07;4.50;;;;;;;;;;4989123;28;20571;-90
2021/06/15 12:23:22;;;;;;;7.20;4.37;;;;;;;;;;4989103;28;20390;-88
2021/06/15 12:25:48;;;;;;;7.95;4.40;;;;;;;;;;4989620;28;20401;-88
2021/06/15 12:28:18;;;;;;;8.60;4.45;;;;;;;;;;4989598;28;20382;-90
2021/06/15 12:30:44;;;;;;;7.03;4.53;;;;;;;;;;4975065;28;20382;-89
2021/06/15 12:33:11;;;;;;;6.70;4.20;;;;;;;;;;4982005;28;20387;-89
2021/06/15 12:35:38;;;;;;;9.27;4.70;;;;;;;;;;4953530;28;20868;-88
2021/06/15 12:38:14;;;;;;;11.63;4.47;;;;;;;;;;4953542;28;20441;-87
2021/06/15 12:40:41;;;;;;;7.70;4.60;;;;;;;;;;4972632;28;20457;-85
2021/06/15 12:43:08;;;;;;;10.00;4.18;;;;;;;;;;4954443;28;20940;-87
2021/06/15 12:45:35;;;;;;;8.63;3.90;;;;;;;;;;4955118;28;20884;-86
2021/06/15 12:48:02;;;;;;;7.97;4.20;;;;;;;;;;4954789;28;20386;-86
2021/06/15 12:50:28;;;;;;;7.20;4.45;;;;;;;;;;4972908;28;20426;-89
2021/06/15 12:53:05;;;;;;;8.30;4.45;;;;;;;;;;4954733;28;20406;-88
2021/06/15 12:55:31;;;;;;;6.75;4.00;;;;;;;;;;4971762;28;20919;-86
2021/06/15 12:58:01;;;;;;;7.70;3.90;;;;;;;;;;4954797;28;20390;-88
2021/06/15 13:00:28;;;;;;;8.82;4.32;;;;;;;;;;4972471;28;20382;-87
2021/06/15 13:03:07;;;;;;;6.30;3.60;;;;;;;;;;4954718;28;20398;-90
2021/06/15 13:05:34;;;;;;;6.68;3.80;;;;;;;;;;4954778;28;20393;-87
2021/06/15 13:08:00;;;;;;;6.18;3.80;;;;;;;;;;4971973;28;20481;-87
2021/06/15 13:10:27;;;;;;;7.05;3.88;;;;;;;;;;4954847;28;20962;-89
2021/06/15 13:12:55;;;;;;;6.23;3.90;;;;;;;;;;4954559;28;20434;-88
2021/06/15 13:15:22;;;;;;;8.27;4.00;;;;;;;;;;4954474;28;20781;-89
2021/06/15 13:18:09;;;;;;;7.47;4.03;;;;;;;;;;4958298;28;20389;-91
2021/06/15 13:20:35;;;;;;;4.78;3.60;;;;;;;;;;4974004;28;20422;-92
2021/06/15 13:23:01;;;;;;;6.40;3.58;;;;;;;;;;4971835;28;20385;-88
2021/06/15 13:25:29;;;;;;;6.97;3.95;;;;;;;;;;4985207;28;20421;-90
2021/06/15 13:27:56;;;;;;;6.60;4.00;;;;;;;;;;4955094;28;20522;-86
2021/06/15 13:30:22;;;;;;;7.55;4.18;;;;;;;;;;4954410;28;21794;-90
2021/06/15 13:33:03;;;;;;;5.93;3.83;;;;;;;;;;4953769;28;20401;-90
2021/06/15 13:35:29;;;;;;;7.15;4.20;;;;;;;;;;4954222;28;20413;-89
2021/06/15 13:37:56;;;;;;;7.25;4.43;;;;;;;;;;4953825;28;20410;-89
2021/06/15 13:40:52;;;;;;;5.38;3.97;;;;;;;;;;4953526;28;20406;-91
2021/06/15 13:43:20;;;;;;;9.02;3.95;;;;;;;;;;4939532;28;20441;-90
2021/06/15 13:46:07;;;;;;;5.20;3.95;;;;;;;;;;4954275;28;20390;-93
2021/06/15 13:48:33;;;;;;;6.43;4.03;;;;;;;;;;4951717;28;20926;-90
2021/06/15 13:50:59;;;;;;;6.75;4.18;;;;;;;;;;4954524;28;20476;-87
2021/06/15 13:53:28;;;;;;;7.32;4.05;;;;;;;;;;4954004;28;20764;-91
2021/06/15 13:55:54;;;;;;;5.88;3.92;;;;;;;;;;4955158;28;20406;-91
2021/06/15 13:58:21;;;;;;;7.70;4.10;;;;;;;;;;4954722;28;20379;-91
2021/06/15 14:00:47;;;;;;;5.20;3.50;;;;;;;;;;4955570;28;20387;-88
2021/06/15 14:03:14;;;;;;;5.38;3.20;;;;;;;;;;4954723;28;20939;-91
2021/06/15 14:05:40;;;;;;;6.50;3.65;;;;;;;;;;4952126;28;20433;-87
2021/06/15 14:08:06;;;;;;;7.40;3.67;;;;;;;;;;4952863;28;20422;-89
2021/06/15 14:10:33;;;;;;;4.63;3.10;;;;;;;;;;4970991;28;20414;-88
2021/06/15 14:13:00;;;;;;;8.30;3.50;;;;;;;;;;4952171;28;20390;-90
2021/06/15 14:15:27;;;;;;;9.18;3.80;;;;;;;;;;4952497;28;20497;-89
2021/06/15 14:17:54;;;;;;;5.22;2.92;;;;;;;;;;4953304;28;20493;-88
2021/06/15 14:20:21;;;;;;;5.03;3.13;;;;;;;;;;4969791;28;20406;-89
2021/06/15 14:22:49;;;;;;;5.37;3.13;;;;;;;;;;4969978;28;20374;-90
2021/06/15 14:25:16;;;;;;;5.15;3.35;;;;;;;;;;4954696;28;20398;-89
2021/06/15 14:27:42;;;;;;;5.57;3.08;;;;;;;;;;4954828;28;20912;-86
2021/06/15 14:30:10;;;;;;;6.30;3.25;;;;;;;;;;4953553;28;20378;-86
2021/06/15 14:32:36;;;;;;;5.60;3.10;;;;;;;;;;4953319;28;20379;-88
2021/06/15 14:35:03;;;;;;;7.65;3.53;;;;;;;;;;4956401;28;20414;-88
2021/06/15 14:37:29;;;;;;;4.93;3.08;;;;;;;;;;4953849;28;20383;-86
2021/06/15 14:39:55;;;;;;;8.52;3.70;;;;;;;;;;4954388;28;20477;-89
2021/06/15 14:42:21;;;;;;;5.82;3.42;;;;;;;;;;4953607;28;20390;-86
2021/06/15 14:44:47;;;;;;;10.80;3.33;;;;;;;;;;4952522;28;20473;-85
2021/06/15 14:47:13;;;;;;;9.23;3.55;;;;;;;;;;4953141;28;20401;-86
2021/06/15 14:49:41;;;;;;;6.75;3.20;;;;;;;;;;4953361;28;20384;-86
2021/06/15 14:52:07;;;;;;;5.15;3.17;;;;;;;;;;4953739;28;20383;-87
2021/06/15 14:54:34;;;;;;;5.60;3.10;;;;;;;;;;4952550;28;20411;-89
2021/06/15 14:57:00;;;;;;;5.70;3.13;;;;;;;;;;4969931;28;20382;-86
2021/06/15 14:59:26;;;;;;;5.88;3.30;;;;;;;;;;4970100;28;20390;-87
2021/06/15 15:01:52;;;;;;;8.10;3.45;;;;;;;;;;4953149;28;20387;-89
2021/06/15 15:04:18;;;;;;;5.25;2.80;;;;;;;;;;4953377;28;20397;-87
2021/06/15 15:06:45;;;;;;;4.85;2.58;;;;;;;;;;4961240;28;20517;-89
2021/06/15 15:09:11;;;;;;;6.87;2.80;;;;;;;;;;4957296;28;20378;-89
2021/06/15 15:11:37;;;;;;;6.13;3.20;;;;;;;;;;4957452;28;20383;-91
2021/06/15 15:14:03;;;;;;;7.60;3.13;;;;;;;;;;4956603;28;20379;-87
2021/06/15 15:16:29;;;;;;;5.45;2.50;;;;;;;;;;4973872;28;20524;-89
2021/06/15 15:19:00;;;;;;;5.65;3.00;;;;;;;;;;4957100;28;20469;-91
2021/06/15 15:21:28;;;;;;;3.92;2.65;;;;;;;;;;4974686;28;20382;-87
2021/06/15 15:23:56;;;;;;;4.22;2.60;;;;;;;;;;4957688;28;20379;-89
2021/06/15 15:26:26;;;;;;;5.15;2.45;;;;;;;;;;4959316;28;20481;-92
2021/06/15 15:28:53;;;;;;;2.72;2.13;;;;;;;;;;4956590;28;20411;-89
2021/06/15 15:31:19;;;;;;;3.92;2.33;;;;;;;;;;4957806;28;20375;-87
2021/06/15 15:33:45;;;;;;;5.40;2.67;;;;;;;;;;4958618;28;20421;-90
2021/06/15 15:36:11;;;;;;;4.28;2.00;;;;;;;;;;4956695;28;20411;-88
2021/06/15 15:38:38;;;;;;;2.92;1.98;;;;;;;;;;4974173;28;20386;-89
2021/06/15 15:41:04;;;;;;;4.87;2.17;;;;;;;;;;4957018;28;20792;-89
2021/06/15 15:43:31;;;;;;;4.30;2.27;;;;;;;;;;4957009;28;20386;-89
2021/06/15 15:45:58;;;;;;;3.50;2.22;;;;;;;;;;4957335;28;20470;-89
2021/06/15 15:48:24;;;;;;;4.55;2.20;;;;;;;;;;4956609;28;20367;-88
2021/06/15 15:50:50;;;;;;;4.32;2.08;;;;;;;;;;4956827;28;20402;-88
2021/06/15 15:53:17;;;;;;;4.20;2.00;;;;;;;;;;4955926;28;20438;-87
2021/06/15 15:55:43;;;;;;;3.63;2.03;;;;;;;;;;4957828;28;20413;-91
2021/06/15 15:58:09;;;;;;;4.43;2.15;;;;;;;;;;4958824;28;20730;-87
2021/06/15 16:00:38;;;;;;;3.30;1.90;;;;;;;;;;4954996;28;20395;-88
2021/06/15 16:03:04;;;;;;;6.53;2.22;;;;;;;;;;4956621;28;20422;-89
2021/06/15 16:05:31;;;;;;;3.00;2.08;;;;;;;;;;4955857;28;20387;-87
2021/06/15 16:07:57;;;;;;;4.68;2.30;;;;;;;;;;4972219;28;20379;-91
2021/06/15 16:10:29;;;;;;;2.47;1.70;;;;;;;;;;4955838;28;20382;-86
2021/06/15 16:12:55;;;;;;;3.95;2.03;;;;;;;;;;4955596;28;20959;-88
2021/06/15 16:15:21;;;;;;;7.23;2.30;;;;;;;;;;4955245;28;20458;-88
2021/06/15 16:17:48;;;;;;;3.80;1.90;;;;;;;;;;4955412;28;20477;-88
2021/06/15 16:20:15;;;;;;;6.40;1.70;;;;;;;;;;4971841;28;20860;-88
2021/06/15 16:22:41;;;;;;;4.82;1.92;;;;;;;;;;4955902;28;20378;-87
2021/06/15 16:25:08;;;;;;;14.70;2.97;;;;;;;;;;4956406;28;20481;-88
2021/06/15 16:27:34;;;;;;;2.23;1.70;;;;;;;;;;4957466;28;20385;-87
2021/06/15 16:30:00;;;;;;;3.92;1.58;;;;;;;;;;4973213;28;20441;-87
2021/06/15 16:32:27;;;;;;;2.10;1.35;;;;;;;;;;4973556;28;20428;-87
2021/06/15 16:34:53;;;;;;;3.63;1.70;;;;;;;;;;4955042;28;20447;-86
2021/06/15 16:37:19;;;;;;;2.53;1.63;;;;;;;;;;4955425;28;20391;-89
2021/06/15 16:39:45;;;;;;;2.65;1.40;;;;;;;;;;4955318;28;20902;-87
2021/06/15 16:42:11;;;;;;;3.75;1.50;;;;;;;;;;4972256;28;20402;-89
2021/06/15 16:44:40;;;;;;;4.20;1.50;;;;;;;;;;4958156;28;20378;-88
2021/06/15 16:47:06;;;;;;;3.13;1.40;;;;;;;;;;4956731;28;20429;-90
2021/06/15 16:49:32;;;;;;;48.75;5.63;;;;;;;;;;4957119;28;20390;-89
2021/06/15 16:51:59;;;;;;;7.68;2.10;;;;;;;;;;4954964;28;20394;-88
2021/06/15 16:54:25;;;;;;;4.23;1.60;;;;;;;;;;4972349;28;20765;-87
2021/06/15 16:56:51;;;;;;;3.75;1.50;;;;;;;;;;4972951;28;20379;-89
2021/06/15 16:59:17;;;;;;;2.35;1.23;;;;;;;;;;4956464;28;20379;-85
2021/06/15 17:01:42;;;;;;;2.40;1.30;;;;;;;;;;4955765;28;20895;-87
2021/06/15 17:04:13;;;;;;;3.55;1.30;;;;;;;;;;4954865;28;20390;-90
2021/06/15 17:06:41;;;;;;;4.18;1.60;;;;;;;;;;4955189;28;20746;-88
2021/06/15 17:09:08;;;;;;;2.97;1.48;;;;;;;;;;4955614;28;20378;-89
2021/06/15 17:11:34;;;;;;;2.47;1.17;;;;;;;;;;4955126;28;20386;-89
2021/06/15 17:14:06;;;;;;;3.58;1.50;;;;;;;;;;4954945;28;20391;-88
2021/06/15 17:16:41;;;;;;;3.17;1.35;;;;;;;;;;4955933;28;20379;-88
2021/06/15 17:19:19;;;;;;;18.83;3.33;;;;;;;;;;4955035;28;20892;-90
2021/06/15 17:21:49;;;;;;;6.22;2.10;;;;;;;;;;4956359;28;20386;-90
2021/06/15 17:24:22;;;;;;;4.80;2.00;;;;;;;;;;4955786;28;20397;-91
2021/06/15 17:26:59;;;;;;;3.90;2.13;;;;;;;;;;4954936;28;20383;-89
2021/06/15 17:29:29;;;;;;;2.13;1.70;;;;;;;;;;4973837;28;20379;-89
2021/06/15 17:31:59;;;;;;;4.88;1.80;;;;;;;;;;4956331;28;20386;-90
2021/06/15 17:34:26;;;;;;;7.10;2.45;;;;;;;;;;4958140;28;20434;-86
2021/06/15 17:36:52;;;;;;;3.00;2.00;;;;;;;;;;4973702;28;20390;-85
2021/06/15 17:39:18;;;;;;;3.15;2.10;;;;;;;;;;4955054;28;20386;-87
2021/06/15 17:41:45;;;;;;;4.20;2.00;;;;;;;;;;4954817;28;20389;-90
2021/06/15 17:44:11;;;;;;;3.83;1.93;;;;;;;;;;4955406;28;20426;-89
2021/06/15 17:46:37;;;;;;;4.68;2.10;;;;;;;;;;4956193;28;20817;-89
2021/06/15 17:49:05;;;;;;;3.13;1.90;;;;;;;;;;4956289;28;20379;-88
2021/06/15 17:51:31;;;;;;;5.40;2.20;;;;;;;;;;4964088;28;20418;-88
2021/06/15 17:54:05;;;;;;;3.63;2.13;;;;;;;;;;4956665;28;20387;-91
2021/06/15 17:56:31;;;;;;;2.92;1.88;;;;;;;;;;4956592;28;20423;-87
2021/06/15 17:58:57;;;;;;;3.50;1.90;;;;;;;;;;4958192;28;20403;-90
2021/06/15 18:01:25;;;;;;;6.03;2.15;;;;;;;;;;4954524;28;20378;-91
2021/06/15 18:03:56;;;;;;;3.33;2.20;;;;;;;;;;4954914;28;21205;-89
2021/06/15 18:06:27;;;;;;;2.60;2.03;;;;;;;;;;4954780;28;20967;-86
2021/06/15 18:09:04;;;;;;;5.72;2.15;;;;;;;;;;4955390;28;20869;-91
2021/06/15 18:11:32;;;;;;;3.70;2.00;;;;;;;;;;4958708;28;20383;-91
2021/06/15 18:14:01;;;;;;;5.80;2.50;;;;;;;;;;4962269;28;20454;-90
2021/06/15 18:16:33;;;;;;;3.70;1.90;;;;;;;;;;4963680;28;20489;-92
2021/06/15 18:19:07;;;;;;;14.30;2.85;;;;;;;;;;4964450;28;20397;-92
2021/06/15 18:22:00;;;;;;;16.40;2.78;;;;;;;;;;4955684;28;20430;-92
2021/06/15 18:24:48;;;;;;;4.20;1.60;;;;;;;;;;4951831;28;20400;-91
2021/06/15 18:27:14;;;;;;;4.20;1.50;;;;;;;;;;4944864;29;20913;-91
2021/06/15 18:29:40;;;;;;;3.20;1.93;;;;;;;;;;4935359;29;20412;-91
2021/06/15 18:32:09;;;;;;;6.18;1.90;;;;;;;;;;4935645;29;20387;-91
2021/06/15 18:34:35;;;;;;;5.38;1.92;;;;;;;;;;4938605;29;20392;-91
2021/06/15 18:37:03;;;;;;;5.30;1.60;;;;;;;;;;4938123;29;20384;-90
2021/06/15 18:39:29;;;;;;;2.22;1.48;;;;;;;;;;4939411;29;20396;-92
2021/06/15 18:41:57;;;;;;;3.72;1.60;;;;;;;;;;4940666;29;20455;-89
2021/06/15 18:44:27;;;;;;;8.48;2.10;;;;;;;;;;4942028;29;20392;-91
2021/06/15 18:46:56;;;;;;;6.18;1.60;;;;;;;;;;4952540;28;20454;-93
2021/06/15 18:49:22;;;;;;;4.60;1.60;;;;;;;;;;4964892;28;20379;-90
2021/06/15 18:51:49;;;;;;;2.83;1.47;;;;;;;;;;4960511;28;20382;-90
2021/06/15 18:54:22;;;;;;;5.70;1.60;;;;;;;;;;4962231;28;20406;-91
2021/06/15 18:56:50;;;;;;;4.50;1.58;;;;;;;;;;4959389;28;20385;-91
2021/06/15 18:59:17;;;;;;;4.20;1.50;;;;;;;;;;4959364;28;20788;-89
2021/06/15 19:01:43;;;;;;;3.95;1.70;;;;;;;;;;4959374;28;20379;-89
2021/06/15 19:04:09;;;;;;;5.40;1.77;;;;;;;;;;4959305;28;20907;-90
2021/06/15 19:06:44;;;;;;;3.85;1.80;;;;;;;;;;4957605;28;20395;-89
2021/06/15 19:09:10;;;;;;;2.83;1.33;;;;;;;;;;4947344;29;20400;-89
2021/06/15 19:11:36;;;;;;;3.63;1.50;;;;;;;;;;4938909;29;20420;-90
2021/06/15 19:14:05;;;;;;;3.60;1.52;;;;;;;;;;4940044;28;20475;-90
2021/06/15 19:16:31;;;;;;;5.00;1.60;;;;;;;;;;4958761;28;20872;-91
2021/06/15 19:22:18;;;;;;;3.37;1.87;;;;;;;;;;4977976;28;20473;-92
2021/06/15 19:24:46;;;;;;;3.58;1.63;;;;;;;;;;4966174;28;20477;-92
2021/06/15 19:27:22;;;;;;;2.85;1.30;;;;;;;;;;4961556;28;20402;-91
2021/06/15 19:29:50;;;;;;;3.40;1.75;;;;;;;;;;4962864;28;20379;-91
2021/06/15 19:32:21;;;;;;;2.70;1.70;;;;;;;;;;4961797;28;20394;-91
2021/06/15 19:34:53;;;;;;;3.20;1.83;;;;;;;;;;4964199;28;20394;-91
2021/06/15 19:37:19;;;;;;;2.77;1.70;;;;;;;;;;4965017;28;20395;-91
2021/06/15 19:39:45;;;;;;;3.17;1.55;;;;;;;;;;4975967;28;20408;-90
2021/06/15 19:42:11;;;;;;;4.87;1.70;;;;;;;;;;4979615;28;20389;-89
2021/06/15 19:44:37;;;;;;;2.60;1.60;;;;;;;;;;4967366;28;20393;-90
2021/06/15 19:47:06;;;;;;;5.03;1.90;;;;;;;;;;4996029;28;20412;-91